General Cabrera, Argentina
Current Conditions -  °F | °C
As of 11:00 AM on Wednesday 28 Jan 2015 (Local Time) from SAOC Reporting Station
Scattered Clouds Scattered Clouds  
Wind Chill: 77°   Ceiling: Unl
Heat Index: 79°   Visibility: 6mi
Dew Point: 61°   Wind: 2mph
Humidity: 57%   Direction: NA
Pressure: 29.83"   Gusts: NA
Location:  32.8°S, 63.87°W
Report Text: SAOC 281400Z VRB02KT 9999 FEW020 SCT03025/16 Q1010
Loading
Personal Weather Stations






























Interactive Weather Map New forecast layout! Learn more

10-Day Weather Forecast

Advertisements
Track Severe Weather on mobile